createdAt,value
2023-03-31T00:04:14.873Z,2.85
2023-03-31T00:09:18.893Z,2.22
2023-03-31T00:14:21.993Z,2.95
2023-03-31T00:19:29.059Z,1.98
2023-03-31T00:24:32.859Z,1.77
2023-03-31T00:29:35.972Z,2.22
2023-03-31T00:34:40.781Z,2.00
2023-03-31T00:39:43.592Z,2.03
2023-03-31T00:45:23.494Z,1.75
2023-03-31T00:50:30.618Z,1.45
2023-03-31T00:55:38.913Z,1.85
2023-03-31T01:00:42.201Z,1.20
2023-03-31T01:05:50.742Z,1.10
2023-03-31T01:10:56.600Z,1.33
2023-03-31T01:15:59.442Z,1.30
2023-03-31T01:21:34.200Z,1.75
2023-03-31T01:26:54.904Z,1.30
2023-03-31T01:32:45.737Z,1.90
2023-03-31T01:38:34.994Z,1.77
2023-03-31T01:43:45.948Z,1.70
2023-03-31T01:48:55.674Z,1.92
2023-03-31T01:54:05.984Z,1.60
2023-03-31T01:59:14.709Z,1.77
2023-03-31T02:04:22.257Z,1.80
2023-03-31T02:09:29.530Z,1.70
2023-03-31T02:14:35.674Z,1.90
2023-03-31T02:19:41.279Z,2.10
2023-03-31T02:24:46.669Z,1.85
2023-03-31T02:29:51.567Z,1.80
2023-03-31T02:34:55.619Z,1.45
2023-03-31T02:40:02.948Z,1.90
2023-03-31T02:45:29.505Z,1.77
2023-03-31T02:50:42.841Z,1.23
2023-03-31T02:56:00.798Z,1.17
2023-03-31T03:01:18.308Z,1.50
2023-03-31T03:06:37.617Z,1.80
2023-03-31T03:11:55.205Z,1.48
2023-03-31T03:17:05.319Z,1.60
2023-03-31T03:22:09.291Z,1.70
2023-03-31T03:27:12.175Z,1.63
2023-03-31T03:32:16.356Z,1.35
2023-03-31T03:37:19.185Z,1.25
2023-03-31T03:42:22.031Z,1.20
2023-03-31T03:47:26.299Z,1.33
2023-03-31T03:52:29.196Z,1.45
2023-03-31T03:57:32.015Z,2.17
2023-03-31T04:02:36.307Z,2.17
2023-03-31T04:07:39.274Z,2.10
2023-03-31T04:12:42.165Z,1.90
2023-03-31T04:17:51.106Z,2.15
2023-03-31T04:22:54.749Z,2.65
2023-03-31T04:27:57.612Z,2.35
2023-03-31T04:33:04.113Z,2.03
2023-03-31T04:38:06.898Z,2.63
2023-03-31T04:43:09.651Z,3.55
2023-03-31T04:48:14.068Z,2.85
2023-03-31T04:53:16.902Z,2.58
2023-03-31T04:58:19.697Z,3.42
2023-03-31T05:03:24.070Z,3.13
2023-03-31T05:08:27.587Z,2.80
2023-03-31T05:13:30.367Z,3.15
2023-03-31T05:18:34.632Z,3.40
2023-03-31T05:23:37.527Z,2.30
2023-03-31T05:28:40.784Z,2.08
2023-03-31T05:33:44.936Z,2.25
2023-03-31T05:38:47.796Z,2.55
2023-03-31T05:43:50.547Z,2.75
2023-03-31T05:48:55.079Z,2.50
2023-03-31T05:53:57.824Z,1.98
2023-03-31T05:59:01.133Z,2.80
2023-03-31T06:04:05.301Z,3.28
2023-03-31T06:09:08.136Z,2.17
2023-03-31T06:14:11.015Z,1.73
2023-03-31T06:19:15.468Z,2.35
2023-03-31T06:24:18.207Z,1.55
2023-03-31T06:29:21.152Z,1.67
2023-03-31T06:34:25.498Z,2.00
2023-03-31T06:39:28.795Z,2.00
2023-03-31T06:44:31.563Z,1.90
2023-03-31T06:49:35.746Z,1.77
2023-03-31T06:54:38.511Z,1.50
2023-03-31T06:59:41.587Z,2.03
2023-03-31T07:04:45.771Z,2.83
2023-03-31T07:09:48.525Z,3.80
2023-03-31T07:14:51.480Z,2.65
2023-03-31T07:19:55.754Z,2.20
2023-03-31T07:24:58.499Z,2.08
2023-03-31T07:30:01.386Z,1.95
2023-03-31T07:35:06.119Z,1.70
2023-03-31T07:40:11.249Z,2.63
2023-03-31T07:45:14.381Z,1.95
2023-03-31T07:50:19.225Z,3.63
2023-03-31T07:55:26.292Z,1.33
2023-03-31T08:00:29.224Z,4.32
2023-03-31T08:05:33.624Z,3.00
2023-03-31T08:10:36.450Z,1.13
2023-03-31T08:15:39.229Z,3.28
2023-03-31T08:20:43.333Z,2.58
2023-03-31T08:25:46.088Z,3.75
2023-03-31T08:30:48.852Z,1.90
2023-03-31T08:35:53.050Z,1.52
2023-03-31T08:41:00.876Z,2.35
2023-03-31T08:46:06.087Z,1.92
2023-03-31T08:51:18.101Z,2.55
2023-03-31T08:56:24.099Z,3.10
2023-03-31T09:01:47.700Z,2.15
2023-03-31T09:07:06.988Z,0.90
2023-03-31T09:12:16.132Z,1.10
2023-03-31T09:17:24.351Z,1.58
2023-03-31T09:22:32.583Z,1.00
2023-03-31T09:27:37.408Z,0.90
2023-03-31T09:32:41.050Z,0.77
2023-03-31T09:37:45.631Z,0.90
2023-03-31T09:42:52.318Z,1.00
2023-03-31T09:47:57.994Z,1.38
2023-03-31T09:53:05.397Z,0.88
2023-03-31T09:58:12.933Z,1.23
2023-03-31T10:03:15.763Z,1.17
2023-03-31T10:08:27.224Z,1.42
2023-03-31T10:13:36.743Z,1.70
2023-03-31T10:18:41.877Z,1.45
2023-03-31T10:23:48.820Z,1.02
2023-03-31T10:28:55.152Z,0.90
2023-03-31T10:33:59.583Z,1.20
2023-03-31T10:39:07.649Z,1.15
2023-03-31T10:44:32.196Z,1.58
2023-03-31T10:49:40.512Z,1.10
2023-03-31T10:54:50.268Z,1.17
2023-03-31T11:00:09.007Z,1.00
2023-03-31T11:05:16.466Z,1.20
2023-03-31T11:10:36.434Z,1.63
2023-03-31T11:15:43.952Z,1.67
2023-03-31T11:20:57.681Z,1.38
2023-03-31T11:26:06.892Z,1.55
2023-03-31T11:31:28.597Z,1.70
2023-03-31T11:36:53.600Z,1.58
2023-03-31T11:42:01.332Z,1.80
2023-03-31T11:47:08.899Z,1.70
2023-03-31T11:52:17.175Z,2.28
2023-03-31T11:57:26.213Z,2.42
2023-03-31T12:02:40.133Z,2.15
2023-03-31T12:07:49.197Z,1.98
2023-03-31T12:12:57.247Z,2.08
2023-03-31T12:18:04.097Z,2.65
2023-03-31T12:23:14.841Z,2.15
2023-03-31T12:28:20.667Z,1.85
2023-03-31T12:33:27.886Z,2.60
2023-03-31T12:38:43.750Z,2.50
2023-03-31T12:44:06.855Z,2.47
2023-03-31T12:49:28.581Z,3.08
2023-03-31T12:54:58.650Z,2.92
2023-03-31T13:00:21.976Z,2.25
2023-03-31T13:05:50.331Z,2.05
2023-03-31T13:10:58.695Z,1.05
2023-03-31T13:16:03.741Z,1.20
2023-03-31T13:21:07.900Z,1.05
2023-03-31T13:26:37.215Z,1.40
2023-03-31T13:32:17.502Z,1.60
2023-03-31T13:37:44.941Z,1.17
2023-03-31T13:43:14.760Z,1.15
2023-03-31T13:48:32.038Z,1.70
2023-03-31T13:53:55.129Z,2.38
2023-03-31T13:59:31.786Z,2.42
2023-03-31T14:05:05.317Z,2.40
2023-03-31T14:10:23.646Z,2.42
2023-03-31T14:15:26.397Z,1.33
2023-03-31T14:20:36.982Z,1.55
2023-03-31T14:25:50.174Z,1.55
2023-03-31T14:31:04.782Z,1.05
2023-03-31T14:36:15.923Z,1.23
2023-03-31T14:41:29.938Z,1.10
2023-03-31T14:46:37.553Z,1.45
2023-03-31T14:51:46.769Z,1.20
2023-03-31T14:56:55.116Z,1.73
2023-03-31T15:02:00.664Z,1.30
2023-03-31T15:07:05.896Z,1.60
2023-03-31T15:12:14.859Z,1.85
2023-03-31T15:17:22.791Z,1.70
2023-03-31T15:22:27.623Z,1.52
2023-03-31T15:27:37.855Z,1.55
2023-03-31T15:32:41.880Z,1.80
2023-03-31T15:37:47.424Z,1.63
2023-03-31T15:43:06.547Z,1.20
2023-03-31T15:48:22.922Z,1.40
2023-03-31T15:53:32.583Z,1.45
2023-03-31T15:58:56.736Z,1.52
2023-03-31T16:04:00.531Z,1.52
2023-03-31T16:09:08.080Z,2.05
2023-03-31T16:14:20.810Z,1.63
2023-03-31T16:24:31.894Z,1.70
2023-03-31T16:29:37.773Z,1.58
2023-03-31T16:34:58.850Z,1.90
2023-03-31T16:40:01.885Z,2.10
2023-03-31T16:50:15.257Z,1.80
2023-03-31T16:55:18.199Z,1.75
2023-03-31T17:00:22.680Z,1.90
2023-03-31T17:05:26.375Z,2.30
2023-03-31T17:10:29.034Z,2.13
2023-03-31T17:20:38.058Z,2.38
2023-03-31T17:25:40.945Z,2.00
2023-03-31T17:35:50.624Z,1.65
2023-03-31T17:40:54.520Z,2.10
2023-03-31T17:46:04.161Z,2.47
2023-03-31T17:51:07.684Z,1.90
2023-03-31T17:56:10.450Z,1.85
2023-03-31T18:06:17.726Z,1.40
2023-03-31T18:11:20.543Z,1.70
2023-03-31T18:16:24.803Z,1.05
2023-03-31T18:21:27.651Z,0.85
2023-03-31T18:26:30.650Z,1.55
2023-03-31T18:31:34.996Z,0.82
2023-03-31T18:36:38.000Z,1.23
2023-03-31T18:41:45.666Z,0.98
2023-03-31T18:46:49.879Z,1.38
2023-03-31T18:51:53.640Z,1.23
2023-03-31T18:56:56.563Z,0.90
2023-03-31T19:02:01.025Z,0.90
2023-03-31T19:07:03.940Z,1.40
2023-03-31T19:12:07.527Z,1.10
2023-03-31T19:17:12.407Z,1.17
2023-03-31T19:22:15.480Z,1.38
2023-03-31T19:27:18.279Z,1.23
2023-03-31T19:32:22.407Z,1.13
2023-03-31T19:37:25.705Z,1.20
2023-03-31T19:42:28.463Z,1.15
2023-03-31T19:47:32.572Z,1.50
2023-03-31T19:52:36.533Z,1.83
2023-03-31T19:57:39.304Z,1.42
2023-03-31T20:02:43.672Z,1.58
2023-03-31T20:07:46.558Z,1.60
2023-03-31T20:12:51.562Z,1.20
2023-03-31T20:17:56.959Z,1.40
2023-03-31T20:23:00.195Z,1.40
2023-03-31T20:28:03.012Z,1.25
2023-03-31T20:33:07.406Z,1.77
2023-03-31T20:38:10.198Z,1.70
2023-03-31T20:43:13.116Z,2.00
2023-03-31T20:48:17.735Z,2.13
2023-03-31T20:53:20.673Z,1.80
2023-03-31T20:58:23.476Z,1.90
2023-03-31T21:03:27.661Z,2.10
2023-03-31T21:08:30.519Z,1.88
2023-03-31T21:13:33.468Z,2.70
2023-03-31T21:18:37.656Z,2.05
2023-03-31T21:23:41.015Z,2.40
2023-03-31T21:28:44.508Z,2.40
2023-03-31T21:33:48.741Z,2.78
2023-03-31T21:38:54.075Z,2.97
2023-03-31T21:43:59.715Z,2.45
2023-03-31T21:49:05.801Z,2.88
2023-03-31T21:54:08.717Z,3.42
2023-03-31T21:59:11.535Z,2.80
2023-03-31T22:04:15.766Z,2.70
2023-03-31T22:09:18.694Z,3.03
2023-03-31T22:14:21.586Z,2.50
2023-03-31T22:19:25.669Z,1.67
2023-03-31T22:24:28.435Z,2.38
2023-03-31T22:29:31.322Z,2.35
2023-03-31T22:34:35.451Z,2.20
2023-03-31T22:39:38.197Z,1.75
2023-03-31T22:44:41.261Z,1.80
2023-03-31T22:49:45.814Z,1.60
2023-03-31T22:54:48.560Z,1.42
2023-03-31T22:59:51.531Z,1.23
2023-03-31T23:04:56.022Z,1.80
2023-03-31T23:09:58.797Z,1.60
2023-03-31T23:15:02.270Z,1.83
2023-03-31T23:20:07.902Z,2.13
2023-03-31T23:25:10.815Z,2.25
2023-03-31T23:30:15.059Z,1.65
2023-03-31T23:35:19.305Z,1.83
2023-03-31T23:40:22.166Z,2.45
2023-03-31T23:45:24.971Z,2.55
2023-03-31T23:50:29.181Z,1.83
2023-03-31T23:55:32.365Z,2.20
